Latest Weather Observations for Derby

IDW60801

Issued at 10:33 pm WST Thursday 18 April 2019 (issued every 10 minutes, with the page automatically refreshed every 10 minutes)

About weather observations | Map of weather stations | Latest weather observations for WA | Other Formats
Station Details ID: 003032 Name: DERBY AERO Lat: -17.37 Lon: 123.66 Height: 6.2 m
Data from the previous 72 hours. | See also: Recent months at Derby
Date/Time
WST
Temp
°C
App
Temp
°C
Dew
Point
°C
Rel
Hum
%
Delta-T
°C
Wind Press
QNH
hPa
Press
MSL
hPa
Rain since
9am
mm
Dir  Spd
km/h
Gust
km/h
Spd
kts
Gust
kts
18/10:30pm 26.6 29.3 21.4 73 3.5 NNE 9 11 5 6 1011.9 1011.9 0.0
18/10:00pm 27.1 31.3 20.9 69 4.1 CALM 0 0 0 0 1011.9 1011.9 0.0
18/09:30pm 27.7 31.4 20.8 66 4.6 SW 2 7 1 4 1011.7 1011.7 0.0
18/09:00pm 27.9 30.0 21.0 66 4.6 SW 11 13 6 7 1011.5 1011.5 0.0
18/08:30pm 28.2 31.1 21.7 68 4.4 WSW 9 11 5 6 1011.4 1011.4 0.0
18/08:00pm 28.4 30.9 21.7 67 4.5 WSW 11 13 6 7 1011.3 1011.3 0.0
18/07:30pm 28.9 30.6 21.7 65 4.8 WSW 15 19 8 10 1011.2 1011.2 0.0
18/07:00pm 29.5 30.8 22.7 67 4.6 W 20 26 11 14 1010.9 1010.9 0.0
18/06:30pm 30.4 31.4 21.8 60 5.8 WNW 19 24 10 13 1010.3 1010.3 0.0
18/06:00pm 29.9 30.9 21.0 59 5.9 NNW 17 24 9 13 1010.1 1010.1 0.0
18/05:30pm 30.1 31.2 22.0 62 5.5 NW 19 20 10 11 1010.4 1010.4 0.0
18/05:00pm 30.3 31.1 21.4 59 6.0 NNW 19 24 10 13 1009.7 1009.7 0.0
18/04:30pm 30.3 30.0 21.1 58 6.1 N 24 32 13 17 1010.2 1010.2 0.0
18/04:00pm 32.0 31.5 22.1 55 6.7 N 28 43 15 23 1010.4 1010.4 0.0
18/03:30pm 32.7 34.5 24.2 61 5.9 NW 22 28 12 15 1009.0 1009.0 0.0
18/03:00pm 34.1 36.8 24.1 56 7.0 NW 17 26 9 14 1008.7 1008.7 0.0
18/02:30pm 34.2 36.0 23.6 54 7.4 NW 20 26 11 14 1008.5 1008.5 0.0
18/02:00pm 35.0 35.5 22.0 46 8.9 NW 22 32 12 17 1009.3 1009.3 0.0
18/01:30pm 34.5 35.3 23.2 51 7.8 NW 24 30 13 16 1009.7 1009.7 0.0
18/01:00pm 34.5 36.2 24.1 54 7.3 NW 22 32 12 17 1010.2 1010.2 0.0
18/12:30pm 34.3 36.5 24.3 56 7.0 NNW 20 30 11 16 1010.5 1010.5 0.0
18/12:00pm 34.1 37.2 24.1 56 7.0 NNW 15 26 8 14 1010.8 1010.8 0.0
18/11:30am 33.9 36.8 23.9 56 7.0 N 15 20 8 11 1011.4 1011.4 0.0
18/11:00am 33.9 37.4 24.2 57 6.8 NW 13 20 7 11 1011.9 1011.9 0.0
18/10:30am 33.4 37.9 24.6 60 6.2 WNW 9 17 5 9 1012.4 1012.4 0.0
18/10:00am 32.6 37.2 24.1 61 5.9 W 7 13 4 7 1012.8 1012.8 0.0
18/09:30am 31.9 35.7 24.0 63 5.5 WNW 11 17 6 9 1012.9 1012.9 0.0
18/09:00am 31.6 35.4 24.0 64 5.3 W 11 17 6 9 1013.2 1013.2 0.0
18/08:30am 31.4 35.0 25.0 69 4.5 WNW 15 19 8 10 1013.1 1013.1 0.0
18/08:00am 30.5 34.2 25.8 76 3.3 WNW 17 20 9 11 1012.6 1012.6 0.0
18/07:30am 30.2 33.8 26.1 79 2.9 WNW 19 24 10 13 1012.3 1012.3 0.0
18/07:00am 29.3 32.7 25.9 82 2.4 WNW 19 24 10 13 1012.0 1012.0 0.0
18/06:30am 28.9 33.2 26.1 85 2.0 NW 15 19 8 10 1011.7 1011.7 0.0
18/06:00am 27.5 32.7 25.7 90 1.3 NNW 9 9 5 5 1011.5 1011.5 0.0
18/05:30am 27.6 33.4 26.0 91 1.1 N 7 9 4 5 1011.3 1011.3 0.0
18/05:00am 27.8 33.2 26.0 90 1.3 N 9 13 5 7 1010.9 1010.9 0.0
18/04:30am 27.5 32.8 25.9 91 1.1 N 9 11 5 6 1010.7 1010.7 0.0
18/04:00am 27.3 32.2 25.3 89 1.4 NNE 9 11 5 6 1010.5 1010.5 0.0
18/03:30am 27.4 31.8 25.0 87 1.7 N 11 15 6 8 1010.2 1010.2 0.0
18/03:00am 27.3 31.3 24.4 84 2.0 N 11 13 6 7 1010.0 1010.0 0.0
18/02:30am 27.0 31.2 24.1 84 2.0 N 9 11 5 6 1010.0 1010.0 0.0
18/02:00am 27.1 30.7 23.8 82 2.3 N 11 11 6 6 1010.0 1010.0 0.0
18/01:30am 27.5 31.8 23.7 80 2.6 NW 7 7 4 4 1010.2 1010.2 0.0
18/01:00am 28.1 32.8 23.9 78 2.9 WSW 6 7 3 4 1010.5 1010.5 0.0
18/12:30am 28.0 32.5 24.0 79 2.8 SW 7 9 4 5 1010.8 1010.8 0.0
18/12:00am 28.1 32.7 24.1 79 2.8 W 7 9 4 5 1011.1 1011.1 0.0
 
Date/Time
WST
Temp
°C
App
Temp
°C
Dew
Point
°C
Rel
Hum
%
Delta-T
°C
Wind Press
QNH
hPa
Press
MSL
hPa
Rain since
9am
mm
Dir  Spd
km/h
Gust
km/h
Spd
kts
Gust
kts
17/11:30pm 28.1 32.1 23.7 77 3.0 WNW 9 11 5 6 1011.4 1011.4 0.0
17/11:00pm 28.5 32.4 23.6 75 3.4 WNW 9 9 5 5 1011.6 1011.6 0.0
17/10:30pm 28.7 32.2 23.6 74 3.5 WNW 11 13 6 7 1011.7 1011.7 0.0
17/10:00pm 28.7 32.7 23.8 75 3.4 W 9 11 5 6 1011.7 1011.7 0.0
17/09:30pm 29.2 32.6 23.4 71 4.0 WNW 11 13 6 7 1011.9 1011.9 0.0
17/09:00pm 29.5 33.3 23.4 69 4.2 W 9 13 5 7 1011.9 1011.9 0.0
17/08:30pm 30.3 32.8 23.2 65 4.9 W 15 19 8 10 1011.9 1011.9 0.0
17/08:00pm 30.7 34.1 24.6 70 4.3 WNW 15 17 8 9 1011.6 1011.6 0.0
17/07:30pm 30.9 34.7 25.9 74 3.6 NW 17 22 9 12 1011.1 1011.1 0.0
17/07:00pm 31.0 34.3 26.0 74 3.6 NW 20 24 11 13 1010.6 1010.6 0.0
17/06:30pm 31.0 34.9 26.9 79 3.0 NW 20 28 11 15 1010.1 1010.1 0.0
17/06:00pm 31.0 33.2 26.7 78 3.1 NW 28 33 15 18 1009.8 1009.8 0.0
17/05:30pm 31.2 33.4 26.7 77 3.2 NW 28 33 15 18 1009.5 1009.5 0.0
17/05:00pm 31.5 34.2 26.3 74 3.7 NNW 24 32 13 17 1009.7 1009.7 0.0
17/04:30pm 31.5 32.6 25.6 71 4.2 NW 30 37 16 20 1009.2 1009.2 0.0
17/04:00pm 32.1 33.1 25.9 70 4.4 NW 32 39 17 21 1009.1 1009.1 0.0
17/03:30pm 33.6 34.6 24.8 60 6.2 NNW 28 33 15 18 1008.6 1008.6 0.0
17/03:00pm 34.7 36.5 24.9 56 7.0 NW 24 32 13 17 1008.5 1008.5 0.0
17/02:30pm 35.0 37.0 24.6 55 7.3 NW 22 30 12 16 1008.9 1008.9 0.0
17/02:00pm 35.8 39.4 24.4 51 8.1 WNW 13 22 7 12 1009.1 1009.1 0.0
17/01:30pm 34.8 37.1 24.4 54 7.3 NW 20 26 11 14 1009.7 1009.7 0.0
17/01:00pm 35.9 40.2 24.2 51 8.2 NW 9 17 5 9 1010.1 1010.1 0.0
17/12:30pm 35.2 40.0 24.5 54 7.6 W 7 19 4 10 1010.7 1010.7 0.0
17/12:00pm 34.4 37.8 24.6 56 6.9 NNW 15 22 8 12 1011.2 1011.2 0.0
17/11:30am 33.8 38.0 24.1 57 6.8 WSW 9 17 5 9 1011.7 1011.7 0.0
17/11:00am 33.0 37.1 24.5 61 6.0 WNW 11 19 6 10 1012.1 1012.1 0.0
17/10:30am 32.9 36.6 24.6 61 5.8 WNW 13 22 7 12 1012.5 1012.5 0.0
17/10:00am 32.0 35.8 24.1 63 5.5 W 11 20 6 11 1013.0 1013.0 0.0
17/09:30am 31.2 34.8 24.3 66 4.8 SW 13 20 7 11 1013.4 1013.4 0.0
17/09:00am 30.5 34.0 24.2 69 4.4 SSW 13 19 7 10 1013.4 1013.4 0.0
17/08:30am 30.1 34.4 24.3 71 4.0 WSW 9 13 5 7 1013.3 1013.3 0.0
17/08:00am 29.6 33.8 24.7 75 3.4 SW 11 15 6 8 1013.0 1013.0 0.0
17/07:30am 28.8 33.8 24.8 79 2.8 WSW 7 11 4 6 1012.6 1012.6 0.0
17/07:00am 27.8 33.5 24.4 82 2.4 N 2 9 1 5 1012.4 1012.4 0.0
17/06:30am 26.6 32.6 24.8 90 1.3 NE 2 7 1 4 1012.2 1012.2 0.0
17/06:00am 26.0 31.3 24.4 91 1.1 N 4 6 2 3 1011.9 1011.9 0.0
17/05:30am 26.4 31.9 24.6 90 1.2 SSW 4 6 2 3 1011.6 1011.6 0.0
17/05:00am 26.6 31.4 24.4 88 1.5 SSW 7 9 4 5 1011.3 1011.3 0.0
17/04:30am 26.7 31.5 24.5 88 1.5 SSW 7 9 4 5 1011.2 1011.2 0.0
17/04:00am 26.8 31.2 24.5 87 1.6 SSW 9 11 5 6 1010.8 1010.8 0.0
17/03:30am 27.0 31.4 24.5 86 1.7 SW 9 13 5 7 1010.6 1010.6 0.0
17/03:00am 27.1 31.1 24.4 85 1.9 SW 11 13 6 7 1010.4 1010.4 0.0
17/02:30am 27.3 31.3 24.4 84 2.0 SW 11 13 6 7 1010.3 1010.3 0.0
17/02:00am 27.4 31.3 24.3 83 2.1 SW 11 15 6 8 1010.3 1010.3 0.0
17/01:30am 27.5 31.3 24.1 82 2.3 SW 11 13 6 7 1010.5 1010.5 0.0
17/01:00am 27.8 31.3 24.2 81 2.5 SW 13 15 7 8 1010.6 1010.6 0.0
17/12:30am 27.8 31.3 24.2 81 2.5 SW 13 15 7 8 1010.8 1010.8 0.0
17/12:00am 27.9 31.7 24.1 80 2.6 SW 11 15 6 8 1011.1 1011.1 0.0
 
Date/Time
WST
Temp
°C
App
Temp
°C
Dew
Point
°C
Rel
Hum
%
Delta-T
°C
Wind Press
QNH
hPa
Press
MSL
hPa
Rain since
9am
mm
Dir  Spd
km/h
Gust
km/h
Spd
kts
Gust
kts
16/11:30pm 28.1 31.8 23.9 78 2.9 SW 11 13 6 7 1011.3 1011.3 0.0
16/11:00pm 28.3 32.0 23.2 74 3.5 SW 9 11 5 6 1011.3 1011.3 0.0
16/10:30pm 28.4 31.9 22.9 72 3.7 SW 9 11 5 6 1011.7 1011.7 0.0
16/10:00pm 29.1 31.4 22.8 69 4.3 SW 15 19 8 10 1011.8 1011.8 0.0
16/09:30pm 29.4 32.3 23.1 69 4.3 SW 13 17 7 9 1011.8 1011.8 0.0
16/09:00pm 30.0 32.3 23.4 67 4.5 SW 17 22 9 12 1011.7 1011.7 0.0
16/08:30pm 30.5 32.9 23.7 67 4.7 SW 17 22 9 12 1011.5 1011.5 0.0
16/08:00pm 30.1 33.5 25.2 75 3.5 W 17 20 9 11 1011.4 1011.4 0.0
16/07:30pm 30.3 33.5 25.6 76 3.3 WNW 19 24 10 13 1011.2 1011.2 0.0
16/07:00pm 30.6 33.3 26.3 78 3.1 NW 24 30 13 16 1010.9 1010.9 0.0
16/06:30pm 30.7 32.4 26.4 78 3.1 NW 30 33 16 18 1010.6 1010.6 0.0
16/06:00pm 30.8 31.8 25.4 73 3.8 NW 30 35 16 19 1010.3 1010.3 0.0
16/05:30pm 31.3 32.2 25.2 70 4.3 NW 30 35 16 19 1010.0 1010.0 0.0
16/05:00pm 32.1 33.2 24.9 65 5.1 NW 28 33 15 18 1009.6 1009.6 0.0
16/04:30pm 33.3 35.1 24.2 59 6.4 NW 22 30 12 16 1009.3 1009.3 0.0
16/04:00pm 35.0 36.5 22.7 49 8.5 WNW 19 24 10 13 1009.1 1009.1 0.0
16/03:30pm 35.6 37.2 22.9 48 8.8 WNW 19 28 10 15 1009.0 1009.0 0.0
16/03:00pm 36.4 37.2 21.8 42 10.0 W 20 30 11 16 1009.1 1009.1 0.0
16/02:30pm 35.0 36.2 19.8 41 10.1 SSW 13 19 7 10 1009.4 1009.4 0.0
16/02:00pm 35.8 37.5 20.1 40 10.5 SW 11 24 6 13 1009.6 1009.6 0.0
16/01:30pm 35.4 36.7 20.9 42 9.8 S 15 24 8 13 1009.9 1009.9 0.0
16/01:00pm 35.3 36.9 20.8 42 9.8 SSW 13 24 7 13 1010.4 1010.4 0.0
16/12:30pm 35.1 37.6 21.7 45 9.1 SSW 11 17 6 9 1010.9 1010.9 0.0
16/12:00pm 34.3 35.1 20.7 45 9.1 S 17 24 9 13 1011.4 1011.4 0.0
16/11:30am 34.0 36.9 22.4 50 8.0 SW 11 20 6 11 1011.8 1011.8 0.0
16/11:00am 32.9 35.2 22.0 52 7.4 SW 13 22 7 12 1012.3 1012.3 0.0
16/10:30am 32.6 34.2 22.1 54 7.2 SW 17 24 9 13 1012.9 1012.9 0.0
16/10:00am 31.4 33.7 22.7 60 6.0 SW 15 24 8 13 1013.3 1013.3 0.0
16/09:30am 30.9 33.7 23.0 62 5.4 SW 13 19 7 10 1013.7 1013.7 0.0
16/09:00am 30.1 33.5 24.0 70 4.2 SW 13 19 7 10 1013.8 1013.8 0.0
16/08:30am 29.5 33.1 24.4 74 3.6 SSW 13 19 7 10 1013.6 1013.6 0.0
16/08:00am 28.6 32.9 23.7 75 3.4 SW 7 11 4 6 1013.5 1013.5 0.0
16/07:30am 28.0 32.4 23.4 76 3.2 W 6 9 3 5 1013.3 1013.3 0.0
16/07:00am 27.3 32.2 23.7 81 2.5 WNW 4 7 2 4 1013.0 1013.0 0.0
16/06:30am 25.9 31.7 23.9 89 1.4 CALM 0 0 0 0 1012.7 1012.7 0.0
16/06:00am 25.1 30.5 23.3 90 1.2 CALM 0 0 0 0 1012.2 1012.2 0.0
16/05:30am 25.4 31.0 23.6 90 1.2 CALM 0 0 0 0 1011.9 1011.9 0.0
16/05:00am 25.7 30.9 23.6 88 1.4 NNE 2 7 1 4 1011.6 1011.6 0.0
16/04:30am 25.9 31.4 23.4 86 1.7 CALM 0 0 0 0 1011.1 1011.1 0.0
16/04:00am 26.2 31.8 23.5 85 1.8 CALM 0 6 0 3 1010.8 1010.8 0.0
16/03:30am 26.3 30.1 23.4 84 2.0 SSW 9 11 5 6 1010.4 1010.4 0.0
16/03:00am 26.7 30.6 23.6 83 2.1 SW 9 13 5 7 1010.4 1010.4 0.0
16/02:30am 26.9 30.0 23.6 82 2.3 SW 13 17 7 9 1010.5 1010.5 0.0
16/02:00am 27.1 30.6 23.6 81 2.4 SSW 11 15 6 8 1010.5 1010.5 0.0
16/01:30am 27.4 30.9 23.6 80 2.6 SW 11 15 6 8 1010.7 1010.7 0.0
16/01:00am 27.6 30.7 23.6 79 2.7 SW 13 17 7 9 1010.9 1010.9 0.0
16/12:30am 27.9 30.2 23.5 77 3.0 SW 17 20 9 11 1011.3 1011.3 0.0
16/12:00am 28.0 31.3 23.8 78 2.9 SW 13 19 7 10 1011.6 1011.6 0.0
 
Date/Time
WST
Temp
°C
App
Temp
°C
Dew
Point
°C
Rel
Hum
%
Delta-T
°C
Wind Press
QNH
hPa
Press
MSL
hPa
Rain since
9am
mm
Dir  Spd
km/h
Gust
km/h
Spd
kts
Gust
kts
15/11:30pm 28.4 30.5 23.8 76 3.2 SW 19 22 10 12 1011.8 1011.8 0.0
15/11:00pm 28.5 31.1 23.9 76 3.2 WSW 17 20 9 11 1011.7 1011.7 0.0

Other formats

Comma delimited format used in spreadsheet applications
http://www.bom.gov.au/fwo/IDW60801/IDW60801.95205.axf

JavaScript Object Notation format (JSON) in row-major order
http://www.bom.gov.au/fwo/IDW60801/IDW60801.95205.json

Data quality

Most of these data are generated automatically and are frequently updated. Quality checks on data are not normally performed. It is possible for incorrect values to appear. Refer to information at About Latest Weather Observations and please check the disclaimer before using these data.